Saulsbury, Tennessee
Current Conditions -  °F | °C
As of 5:55 PM on Thursday 27 Nov 2014 (Local Time) from KCRX Reporting Station
Broken Clouds Broken Clouds  
Wind Chill: 37°   Ceiling: 3400
Heat Index: 37°   Visibility: NA
Dew Point: 27°   Wind: 3mph
Humidity: 65%   Direction: 320°NW
Pressure: 30.48"   Gusts: NA
Location:  35.05°N, 89.09°W
Report Text: KCRX 272355Z AUTO 32003KT BKN034 03/M03 A3048 RMK AO2
Loading
Personal Weather Stations






























Interactive Weather Map New forecast layout! Learn more

10-Day Weather Forecast

Advertisements
Track Severe Weather on mobile